Kewa, Washington
Current Conditions -  °F | °C
As of 3:53 AM on Thursday 23 Oct 2014 (Local Time) from KOMK Reporting Station
Clear Clear  
Wind Chill: 52°   Ceiling: Unl
Heat Index: 52°   Visibility: 10mi
Dew Point: 44°   Wind: 8mph
Humidity: 74%   Direction: 150°SSE
Pressure: 29.68"   Gusts: NA
Location:  48.2853°N, 118.523°W
Report Text: KOMK 231053Z AUTO 15007KT 10SM CLR 11/07 A2968 RMK AO2 SLP052 T01110067
Loading
Personal Weather Stations






























Interactive Weather Map
Tropical Storm Tracking
New forecast layout! Learn more

10-Day Weather Forecast

Advertisements
Track Severe Weather on mobile